YBVA weather

Balaklava Airport
South Australia, Australia

Public forecast

Using degrees Celsius for public forecast. Weather courtesy of forecast.io.

Closest aviation weather report (METAR) to Balaklava Airport

Closest report is Adelaide International Airport, 52.6 nm (97.4 km) S. Retrieved 2020/02/24 23:30 UTC (27 minutes ago):

YPAD 242330Z 23007KT CAVOK 22/16 Q1014 NOSIG

Closest aviation forecast (TAF) to Balaklava Airport

Closest forecast is Adelaide International Airport, 52.6 nm (97.4 km) S. Retrieved 2020/02/24 18:00 UTC (6 hours ago):

TAF YPAD 241704Z 2418/2600 VRB03KT CAVOK FM250000 22014KT CAVOK FM251000 17006KT CAVOK FM251600 21012KT 9999 BKN020 FM251900 22014KT 9999 -SHRA BKN022